createdAt,value
2022-12-03T00:01:05.698Z,42.33
2022-12-03T00:03:35.994Z,46.80
2022-12-03T00:06:04.096Z,44.78
2022-12-03T00:08:34.879Z,41.05
2022-12-03T00:11:03.153Z,45.35
2022-12-03T00:13:32.600Z,46.42
2022-12-03T00:16:00.646Z,42.83
2022-12-03T00:18:28.672Z,48.00
2022-12-03T00:20:56.891Z,48.28
2022-12-03T00:23:25.300Z,47.22
2022-12-03T00:25:53.258Z,53.70
2022-12-03T00:28:21.229Z,39.63
2022-12-03T00:30:54.271Z,38.70
2022-12-03T00:33:23.014Z,42.42
2022-12-03T00:35:51.041Z,38.92
2022-12-03T00:38:18.981Z,43.80
2022-12-03T00:40:47.246Z,31.45
2022-12-03T00:43:15.362Z,53.92
2022-12-03T00:45:43.343Z,53.47
2022-12-03T00:48:12.651Z,35.97
2022-12-03T00:50:40.572Z,42.13
2022-12-03T00:53:08.522Z,52.90
2022-12-03T00:55:36.388Z,47.63
2022-12-03T00:58:04.445Z,30.85
2022-12-03T01:00:32.398Z,32.88
2022-12-03T01:03:00.683Z,41.20
2022-12-03T01:06:01.477Z,44.13
2022-12-03T01:08:31.168Z,43.53
2022-12-03T01:10:59.250Z,36.92
2022-12-03T01:13:27.213Z,40.42
2022-12-03T01:15:55.286Z,49.25
2022-12-03T01:18:23.522Z,36.85
2022-12-03T01:20:51.443Z,44.25
2022-12-03T01:23:19.382Z,47.55
2022-12-03T01:25:48.866Z,48.00
2022-12-03T01:28:16.991Z,48.53
2022-12-03T01:30:58.951Z,47.17
2022-12-03T01:33:27.063Z,51.13
2022-12-03T01:35:55.302Z,47.85
2022-12-03T01:38:23.218Z,49.58
2022-12-03T01:40:54.850Z,45.60
2022-12-03T01:43:22.746Z,53.40
2022-12-03T01:45:51.106Z,54.03
2022-12-03T01:48:19.102Z,47.08
2022-12-03T01:50:47.479Z,53.33
2022-12-03T01:53:18.437Z,69.72
2022-12-03T01:55:48.943Z,61.78
2022-12-03T01:58:25.883Z,53.80
2022-12-03T02:00:53.953Z,48.17
2022-12-03T02:03:27.052Z,48.80
2022-12-03T02:05:56.990Z,45.88
2022-12-03T02:08:29.650Z,52.63
2022-12-03T02:10:59.363Z,51.78
2022-12-03T02:13:29.680Z,47.42
2022-12-03T02:15:58.067Z,43.92
2022-12-03T02:18:26.918Z,50.65
2022-12-03T02:21:02.999Z,49.83
2022-12-03T02:23:39.574Z,47.00
2022-12-03T02:26:10.348Z,57.10
2022-12-03T02:28:38.852Z,44.70
2022-12-03T02:31:07.789Z,58.10
2022-12-03T02:33:36.820Z,54.67
2022-12-03T02:36:05.342Z,58.92
2022-12-03T02:38:35.871Z,53.22
2022-12-03T02:41:08.436Z,48.20
2022-12-03T02:43:36.982Z,55.00
2022-12-03T02:46:06.784Z,51.10
2022-12-03T02:48:37.904Z,70.97
2022-12-03T02:51:10.115Z,61.20
2022-12-03T02:53:42.646Z,63.47
2022-12-03T02:56:13.567Z,71.55
2022-12-03T02:58:44.933Z,68.43
2022-12-03T03:01:14.532Z,74.43
2022-12-03T03:03:43.162Z,88.50
2022-12-03T03:06:11.438Z,111.03
2022-12-03T03:08:41.630Z,96.63
2022-12-03T03:11:10.217Z,97.22
2022-12-03T03:13:39.232Z,96.28
2022-12-03T03:16:09.884Z,108.38
2022-12-03T03:18:38.561Z,111.72
2022-12-03T03:21:06.868Z,100.70
2022-12-03T03:23:35.338Z,114.95
2022-12-03T03:26:06.071Z,120.35
2022-12-03T03:28:37.230Z,125.53
2022-12-03T03:31:07.710Z,117.15
2022-12-03T03:33:38.683Z,105.30
2022-12-03T03:36:08.041Z,99.03
2022-12-03T03:38:36.664Z,107.15
2022-12-03T03:41:07.232Z,124.50
2022-12-03T03:43:38.309Z,120.78
2022-12-03T03:46:08.088Z,124.65
2022-12-03T03:48:38.027Z,124.45
2022-12-03T03:51:09.575Z,123.13
2022-12-03T03:53:38.896Z,111.20
2022-12-03T03:56:07.685Z,115.15
2022-12-03T03:58:36.173Z,110.78
2022-12-03T04:01:04.693Z,110.47
2022-12-03T04:03:33.063Z,107.88
2022-12-03T04:06:02.631Z,111.35
2022-12-03T04:08:30.796Z,133.02
2022-12-03T04:11:15.957Z,118.15
2022-12-03T04:13:44.186Z,125.57
2022-12-03T04:16:12.261Z,127.28
2022-12-03T04:18:46.210Z,132.07
2022-12-03T04:21:50.140Z,138.82
2022-12-03T04:24:18.226Z,131.50
2022-12-03T04:27:04.027Z,125.05
2022-12-03T04:29:32.375Z,114.72
2022-12-03T04:32:17.801Z,123.90
2022-12-03T04:35:03.269Z,108.57
2022-12-03T04:37:32.858Z,99.07
2022-12-03T04:40:00.789Z,102.20
2022-12-03T04:42:28.740Z,109.32
2022-12-03T04:44:58.494Z,129.32
2022-12-03T04:47:26.652Z,138.30
2022-12-03T04:49:54.536Z,124.38
2022-12-03T04:52:22.553Z,126.88
2022-12-03T04:54:52.184Z,120.55
2022-12-03T04:57:20.392Z,121.15
2022-12-03T04:59:48.351Z,120.82
2022-12-03T05:02:16.437Z,103.75
2022-12-03T05:04:44.643Z,93.05
2022-12-03T05:07:12.793Z,64.32
2022-12-03T05:09:40.716Z,74.10
2022-12-03T05:12:10.087Z,71.45
2022-12-03T05:14:38.190Z,80.10
2022-12-03T05:17:06.466Z,103.18
2022-12-03T05:19:51.714Z,120.05
2022-12-03T05:22:19.746Z,132.90
2022-12-03T05:24:47.750Z,139.15
2022-12-03T05:27:23.172Z,137.32
2022-12-03T05:29:52.190Z,140.25
2022-12-03T05:32:20.379Z,146.93
2022-12-03T05:34:48.371Z,125.80
2022-12-03T05:37:16.537Z,132.18
2022-12-03T05:39:44.753Z,136.88
2022-12-03T05:42:30.200Z,151.10
2022-12-03T05:45:00.005Z,144.05
2022-12-03T05:47:27.886Z,145.13
2022-12-03T05:49:55.943Z,174.52
2022-12-03T05:52:24.105Z,154.20
2022-12-03T05:54:52.427Z,164.35
2022-12-03T05:57:20.940Z,168.57
2022-12-03T05:59:49.018Z,187.13
2022-12-03T06:02:18.575Z,206.48
2022-12-03T06:04:46.678Z,173.68
2022-12-03T06:07:14.877Z,176.98
2022-12-03T06:09:43.183Z,162.45
2022-12-03T06:12:11.197Z,173.05
2022-12-03T06:14:39.388Z,163.13
2022-12-03T06:17:07.289Z,175.27
2022-12-03T06:19:36.833Z,161.50
2022-12-03T06:22:04.972Z,159.48
2022-12-03T06:24:32.903Z,127.75
2022-12-03T06:27:01.029Z,137.05
2022-12-03T06:29:28.979Z,151.43
2022-12-03T06:31:57.062Z,165.68
2022-12-03T06:34:24.972Z,156.45
2022-12-03T06:36:54.277Z,176.25
2022-12-03T06:39:22.666Z,193.63
2022-12-03T06:41:50.853Z,183.98
2022-12-03T06:44:18.738Z,170.75
2022-12-03T06:46:46.964Z,180.05
2022-12-03T06:49:15.232Z,172.50
2022-12-03T06:51:43.098Z,171.75
2022-12-03T06:54:12.333Z,147.50
2022-12-03T06:56:45.155Z,152.73
2022-12-03T06:59:13.941Z,133.10
2022-12-03T07:01:41.931Z,108.35
2022-12-03T07:04:10.236Z,121.40
2022-12-03T07:06:38.149Z,118.13
2022-12-03T07:09:06.262Z,133.10
2022-12-03T07:11:40.463Z,129.32
2022-12-03T07:14:11.354Z,155.80
2022-12-03T07:16:43.482Z,156.63
2022-12-03T07:19:12.314Z,163.10
2022-12-03T07:21:40.527Z,181.20
2022-12-03T07:24:08.976Z,122.00
2022-12-03T07:26:38.781Z,213.25
2022-12-03T07:29:06.930Z,153.20
2022-12-03T07:31:35.107Z,162.70
2022-12-03T07:34:03.596Z,158.70
2022-12-03T07:36:31.740Z,144.25
2022-12-03T07:39:00.442Z,182.45
2022-12-03T07:41:28.616Z,225.18
2022-12-03T07:43:58.692Z,232.52
2022-12-03T07:46:27.161Z,238.45
2022-12-03T07:48:55.743Z,228.98
2022-12-03T07:51:27.491Z,192.48
2022-12-03T07:54:00.012Z,178.48
2022-12-03T07:56:28.046Z,209.80
2022-12-03T07:58:57.801Z,191.73
2022-12-03T08:01:26.282Z,179.82
2022-12-03T08:03:54.627Z,210.50
2022-12-03T08:06:23.104Z,191.27
2022-12-03T08:08:55.850Z,141.30
2022-12-03T08:11:27.403Z,158.10
2022-12-03T08:14:02.855Z,183.40
2022-12-03T08:16:34.015Z,196.50
2022-12-03T08:19:10.744Z,213.38
2022-12-03T08:21:41.964Z,193.00
2022-12-03T08:24:19.412Z,223.13
2022-12-03T08:26:55.089Z,177.45
2022-12-03T08:29:29.519Z,199.68
2022-12-03T08:32:01.655Z,180.30
2022-12-03T08:34:34.811Z,194.32
2022-12-03T08:37:13.788Z,177.15
2022-12-03T08:39:49.179Z,167.25
2022-12-03T08:42:40.914Z,167.77
2022-12-03T08:45:42.793Z,185.18
2022-12-03T08:48:33.623Z,193.68
2022-12-03T08:51:05.356Z,179.32
2022-12-03T08:53:37.233Z,159.23
2022-12-03T08:56:14.392Z,174.35
2022-12-03T08:58:45.189Z,156.30
2022-12-03T09:01:33.880Z,194.27
2022-12-03T09:04:25.127Z,225.02
2022-12-03T09:06:54.116Z,198.70
2022-12-03T09:09:23.320Z,175.60
2022-12-03T09:11:51.928Z,158.70
2022-12-03T09:14:22.842Z,141.50
2022-12-03T09:16:55.922Z,141.43
2022-12-03T09:19:25.165Z,130.43
2022-12-03T09:21:53.443Z,111.45
2022-12-03T09:24:21.412Z,98.32
2022-12-03T09:26:49.615Z,56.03
2022-12-03T09:29:17.635Z,88.95
2022-12-03T09:31:45.673Z,94.57
2022-12-03T09:34:15.695Z,99.00
2022-12-03T09:36:44.035Z,104.15
2022-12-03T09:39:12.360Z,129.50
2022-12-03T09:41:40.723Z,86.47
2022-12-03T09:44:13.938Z,102.30
2022-12-03T09:46:47.000Z,92.57
2022-12-03T09:49:19.839Z,107.53
2022-12-03T09:51:48.436Z,130.13
2022-12-03T09:54:23.280Z,127.75
2022-12-03T09:56:51.873Z,126.35
2022-12-03T09:59:19.949Z,122.80
2022-12-03T10:01:48.080Z,121.30
2022-12-03T10:04:17.772Z,115.10
2022-12-03T10:06:46.402Z,82.32
2022-12-03T10:09:18.147Z,91.03
2022-12-03T10:11:46.545Z,83.63
2022-12-03T10:14:16.072Z,94.03
2022-12-03T10:16:44.878Z,85.47
2022-12-03T10:19:20.705Z,111.28
2022-12-03T10:21:48.877Z,99.35
2022-12-03T10:24:26.945Z,95.90
2022-12-03T10:26:57.411Z,115.22
2022-12-03T10:29:33.334Z,146.93
2022-12-03T10:32:04.313Z,133.95
2022-12-03T10:34:36.278Z,145.68
2022-12-03T10:37:14.285Z,134.77
2022-12-03T10:39:58.250Z,142.13
2022-12-03T10:42:26.958Z,163.52
2022-12-03T10:45:20.221Z,165.95
2022-12-03T10:48:06.052Z,150.80
2022-12-03T10:50:36.698Z,139.48
2022-12-03T10:53:05.349Z,138.98
2022-12-03T10:55:40.111Z,130.90
2022-12-03T10:58:17.404Z,145.45
2022-12-03T11:00:45.390Z,135.35
2022-12-03T11:03:19.639Z,130.15
2022-12-03T11:05:52.808Z,116.07
2022-12-03T11:08:22.869Z,127.65
2022-12-03T11:10:59.467Z,107.15
2022-12-03T11:13:52.670Z,100.47
2022-12-03T11:17:09.287Z,89.38
2022-12-03T11:19:52.200Z,89.88
2022-12-03T11:22:47.019Z,84.22
2022-12-03T11:25:50.363Z,68.65
2022-12-03T11:28:39.538Z,72.50
2022-12-03T11:31:15.210Z,79.07
2022-12-03T11:33:44.705Z,91.32
2022-12-03T11:36:36.466Z,94.70
2022-12-03T11:39:10.676Z,91.93
2022-12-03T11:41:38.832Z,90.90
2022-12-03T11:44:38.294Z,91.75
2022-12-03T11:47:16.210Z,82.68
2022-12-03T11:49:49.040Z,67.07
2022-12-03T11:52:26.562Z,82.10
2022-12-03T11:55:01.397Z,78.55
2022-12-03T11:57:36.762Z,78.03
2022-12-03T12:00:19.994Z,78.35
2022-12-03T12:02:49.389Z,66.68
2022-12-03T12:05:20.928Z,70.05
2022-12-03T12:07:50.500Z,77.57
2022-12-03T12:10:52.837Z,99.55
2022-12-03T12:13:50.622Z,98.53
2022-12-03T12:16:37.443Z,100.97
2022-12-03T12:19:36.911Z,103.85
2022-12-03T12:22:30.463Z,107.00
2022-12-03T12:24:59.674Z,113.05
2022-12-03T12:27:37.531Z,102.38
2022-12-03T12:30:07.812Z,111.85
2022-12-03T12:32:43.314Z,248.27
2022-12-03T12:35:18.550Z,250.57
2022-12-03T12:37:56.845Z,240.95
2022-12-03T12:40:29.749Z,251.38
2022-12-03T12:43:05.410Z,253.38
2022-12-03T12:45:41.212Z,227.77
2022-12-03T12:48:17.927Z,220.05
2022-12-03T12:50:47.601Z,216.30
2022-12-03T12:53:23.545Z,239.60
2022-12-03T12:55:57.768Z,245.07
2022-12-03T12:58:29.979Z,234.93
2022-12-03T13:01:00.434Z,221.82
2022-12-03T13:03:33.931Z,214.65
2022-12-03T13:06:03.906Z,228.85
2022-12-03T13:08:34.138Z,206.13
2022-12-03T13:11:03.773Z,183.90
2022-12-03T13:13:43.746Z,198.13
2022-12-03T13:16:18.345Z,170.52
2022-12-03T13:18:49.038Z,168.50
2022-12-03T13:21:24.631Z,144.05
2022-12-03T13:23:54.474Z,159.93
2022-12-03T13:26:38.655Z,164.43
2022-12-03T13:29:15.451Z,164.95
2022-12-03T13:31:50.383Z,171.15
2022-12-03T13:34:22.628Z,189.02
2022-12-03T13:36:57.683Z,199.80
2022-12-03T13:39:30.949Z,208.30
2022-12-03T13:42:30.996Z,211.52
2022-12-03T13:45:03.206Z,59.33
2022-12-03T13:47:31.475Z,65.20
2022-12-03T13:50:04.717Z,58.28
2022-12-03T13:52:36.343Z,59.92
2022-12-03T13:55:06.799Z,68.65
2022-12-03T13:57:35.043Z,60.80
2022-12-03T14:00:06.062Z,60.28
2022-12-03T14:02:34.335Z,55.60
2022-12-03T14:05:03.296Z,62.92
2022-12-03T14:07:31.304Z,64.97
2022-12-03T14:09:59.583Z,73.82
2022-12-03T14:12:27.494Z,68.10
2022-12-03T14:14:55.780Z,58.83
2022-12-03T14:17:25.172Z,60.00
2022-12-03T14:19:53.269Z,70.18
2022-12-03T14:22:23.592Z,56.97
2022-12-03T14:24:51.896Z,54.65
2022-12-03T14:27:20.436Z,58.53
2022-12-03T14:29:49.300Z,68.18
2022-12-03T14:32:17.471Z,68.38
2022-12-03T14:34:47.057Z,59.90
2022-12-03T14:37:15.852Z,63.60
2022-12-03T14:39:43.884Z,66.15
2022-12-03T14:42:14.708Z,64.45
2022-12-03T14:44:43.814Z,49.40
2022-12-03T14:47:12.358Z,48.40
2022-12-03T14:49:40.730Z,44.15
2022-12-03T14:52:12.539Z,46.03
2022-12-03T14:54:42.671Z,52.70
2022-12-03T14:57:12.877Z,44.53
2022-12-03T14:59:42.118Z,54.55
2022-12-03T15:02:11.473Z,47.75
2022-12-03T15:04:40.495Z,47.38
2022-12-03T15:07:13.037Z,44.38
2022-12-03T15:09:41.060Z,48.83
2022-12-03T15:12:09.617Z,39.38
2022-12-03T15:14:37.685Z,40.17
2022-12-03T15:17:05.838Z,42.15
2022-12-03T15:19:34.120Z,40.20
2022-12-03T15:22:02.295Z,50.65
2022-12-03T15:24:31.927Z,44.60
2022-12-03T15:27:00.112Z,38.35
2022-12-03T15:29:28.118Z,39.60
2022-12-03T15:31:56.267Z,43.25
2022-12-03T15:34:24.232Z,35.50
2022-12-03T15:36:53.261Z,41.20
2022-12-03T15:39:22.625Z,42.78
2022-12-03T15:41:51.906Z,41.05
2022-12-03T15:44:19.727Z,44.92
2022-12-03T15:46:47.652Z,44.20
2022-12-03T15:49:15.819Z,42.83
2022-12-03T15:51:45.668Z,54.38
2022-12-03T15:54:13.522Z,40.95
2022-12-03T15:56:41.649Z,41.53
2022-12-03T15:59:10.826Z,41.70
2022-12-03T16:01:39.115Z,42.75
2022-12-03T16:04:07.266Z,45.13
2022-12-03T16:06:35.138Z,49.70
2022-12-03T16:09:03.049Z,49.60
2022-12-03T16:11:30.993Z,69.65
2022-12-03T16:13:59.199Z,50.58
2022-12-03T16:16:28.590Z,54.78
2022-12-03T16:18:56.546Z,61.45
2022-12-03T16:21:27.040Z,48.08
2022-12-03T16:23:56.077Z,53.95
2022-12-03T16:26:26.735Z,59.35
2022-12-03T16:28:54.858Z,49.92
2022-12-03T16:31:22.877Z,53.60
2022-12-03T16:33:52.319Z,68.20
2022-12-03T16:36:20.260Z,57.35
2022-12-03T16:38:48.306Z,61.10
2022-12-03T16:41:16.301Z,57.08
2022-12-03T16:43:47.426Z,64.85
2022-12-03T16:46:25.804Z,84.20
2022-12-03T16:48:57.927Z,98.97
2022-12-03T16:51:27.294Z,81.93
2022-12-03T16:53:55.804Z,76.85
2022-12-03T16:56:24.080Z,64.97
2022-12-03T16:58:51.955Z,74.88
2022-12-03T17:01:20.208Z,77.07
2022-12-03T17:03:48.295Z,71.43
2022-12-03T17:06:17.643Z,80.65
2022-12-03T17:08:49.376Z,72.28
2022-12-03T17:11:18.861Z,74.10
2022-12-03T17:13:47.095Z,83.90
2022-12-03T17:16:15.440Z,74.95
2022-12-03T17:18:43.778Z,79.25
2022-12-03T17:21:11.884Z,84.32
2022-12-03T17:23:41.217Z,64.13
2022-12-03T17:26:09.169Z,67.93
2022-12-03T17:28:37.116Z,68.00
2022-12-03T17:31:07.855Z,65.43
2022-12-03T17:33:35.906Z,52.72
2022-12-03T17:36:04.408Z,61.83
2022-12-03T17:38:39.418Z,60.65
2022-12-03T17:41:11.344Z,66.10
2022-12-03T17:43:39.585Z,63.80
2022-12-03T17:46:07.869Z,65.65
2022-12-03T17:48:36.476Z,59.90
2022-12-03T17:51:04.535Z,63.10
2022-12-03T17:53:32.552Z,70.45
2022-12-03T17:56:00.447Z,70.15
2022-12-03T17:58:29.923Z,69.43
2022-12-03T18:01:02.455Z,71.65
2022-12-03T18:03:31.258Z,72.72
2022-12-03T18:05:59.566Z,60.83
2022-12-03T18:08:27.748Z,69.88
2022-12-03T18:10:55.823Z,72.82
2022-12-03T18:13:23.872Z,72.93
2022-12-03T18:15:54.488Z,83.43
2022-12-03T18:18:22.599Z,88.57
2022-12-03T18:21:05.850Z,74.57
2022-12-03T18:23:36.847Z,66.80
2022-12-03T18:26:05.198Z,70.57
2022-12-03T18:28:33.303Z,64.75
2022-12-03T18:31:02.741Z,78.57
2022-12-03T18:33:30.716Z,94.38
2022-12-03T18:35:59.404Z,73.10
2022-12-03T18:38:34.317Z,69.20
2022-12-03T18:41:02.162Z,82.90
2022-12-03T18:43:36.112Z,71.15
2022-12-03T18:46:15.949Z,72.55
2022-12-03T18:48:53.316Z,80.63
2022-12-03T18:51:24.035Z,80.90
2022-12-03T18:53:52.971Z,77.35
2022-12-03T18:56:20.823Z,78.18
2022-12-03T18:58:48.734Z,77.53
2022-12-03T19:01:20.463Z,67.07
2022-12-03T19:03:48.833Z,80.57
2022-12-03T19:06:19.164Z,70.55
2022-12-03T19:08:48.326Z,66.75
2022-12-03T19:11:16.503Z,53.85
2022-12-03T19:13:44.451Z,67.60
2022-12-03T19:16:13.406Z,64.68
2022-12-03T19:18:42.686Z,68.28
2022-12-03T19:21:12.707Z,76.35
2022-12-03T19:23:41.386Z,80.43
2022-12-03T19:26:13.121Z,81.00
2022-12-03T19:28:42.517Z,83.22
2022-12-03T19:31:13.227Z,79.25
2022-12-03T19:33:43.050Z,130.20
2022-12-03T19:36:21.251Z,98.10
2022-12-03T19:38:55.185Z,84.10
2022-12-03T19:41:26.722Z,84.85
2022-12-03T19:43:56.649Z,91.47
2022-12-03T19:46:25.818Z,94.35
2022-12-03T19:48:56.093Z,82.68
2022-12-03T19:51:34.620Z,77.68
2022-12-03T19:54:03.466Z,73.45
2022-12-03T19:56:31.622Z,72.95
2022-12-03T19:59:00.139Z,79.85
2022-12-03T20:01:30.000Z,76.13
2022-12-03T20:04:01.334Z,86.68
2022-12-03T20:06:31.038Z,81.18
2022-12-03T20:09:00.663Z,78.90
2022-12-03T20:11:30.566Z,74.80
2022-12-03T20:14:00.088Z,78.45
2022-12-03T20:16:31.495Z,95.32
2022-12-03T20:19:02.397Z,75.53
2022-12-03T20:21:32.408Z,64.20
2022-12-03T20:24:00.761Z,62.63
2022-12-03T20:26:29.697Z,66.82
2022-12-03T20:28:58.353Z,68.03
2022-12-03T20:31:28.551Z,70.15
2022-12-03T20:33:58.755Z,67.82
2022-12-03T20:36:30.248Z,69.15
2022-12-03T20:39:00.005Z,65.00
2022-12-03T20:41:28.762Z,70.80
2022-12-03T20:43:57.146Z,64.50
2022-12-03T20:46:27.271Z,63.08
2022-12-03T20:48:56.250Z,78.05
2022-12-03T20:51:25.591Z,57.50
2022-12-03T20:53:55.528Z,69.00
2022-12-03T20:56:26.100Z,63.42
2022-12-03T20:58:54.547Z,59.40
2022-12-03T21:01:25.041Z,71.90
2022-12-03T21:03:54.187Z,74.28
2022-12-03T21:06:23.469Z,58.58
2022-12-03T21:08:53.169Z,74.75
2022-12-03T21:11:25.761Z,70.00
2022-12-03T21:13:55.068Z,77.38
2022-12-03T21:16:52.069Z,73.45
2022-12-03T21:19:13.648Z,71.15
2022-12-03T21:21:41.768Z,72.13
2022-12-03T21:24:09.648Z,81.80
2022-12-03T21:26:39.148Z,78.38
2022-12-03T21:29:07.381Z,84.13
2022-12-03T21:31:37.350Z,79.35
2022-12-03T21:34:05.599Z,74.68
2022-12-03T21:36:33.598Z,76.43
2022-12-03T21:39:01.658Z,68.40
2022-12-03T21:41:29.599Z,69.45
2022-12-03T21:43:58.934Z,80.28
2022-12-03T21:47:12.137Z,69.63
2022-12-03T21:49:15.073Z,81.18
2022-12-03T21:51:42.942Z,65.72
2022-12-03T21:54:10.781Z,70.30
2022-12-03T21:56:38.873Z,76.60
2022-12-03T21:59:08.110Z,60.28
2022-12-03T22:01:35.976Z,66.53
2022-12-03T22:04:03.890Z,63.95
2022-12-03T22:06:31.800Z,65.38
2022-12-03T22:08:59.687Z,64.93
2022-12-03T22:11:27.580Z,68.20
2022-12-03T22:13:57.169Z,66.00
2022-12-03T22:16:26.432Z,59.75
2022-12-03T22:18:55.502Z,68.10
2022-12-03T22:21:24.602Z,67.88
2022-12-03T22:23:52.894Z,61.78
2022-12-03T22:26:20.779Z,76.03
2022-12-03T22:28:50.172Z,70.88
2022-12-03T22:31:18.914Z,61.25
2022-12-03T22:33:48.620Z,74.32
2022-12-03T22:36:21.352Z,70.97
2022-12-03T22:38:52.757Z,68.85
2022-12-03T22:41:21.242Z,70.03
2022-12-03T22:43:49.891Z,67.15
2022-12-03T22:46:18.477Z,74.03
2022-12-03T22:48:49.199Z,65.63
2022-12-03T22:51:20.161Z,68.00
2022-12-03T22:53:48.584Z,58.00
2022-12-03T22:56:17.364Z,72.50
2022-12-03T22:58:45.748Z,61.38
2022-12-03T23:01:22.385Z,69.35
2022-12-03T23:03:51.955Z,64.25
2022-12-03T23:06:21.203Z,56.42
2022-12-03T23:08:49.802Z,57.53
2022-12-03T23:11:20.736Z,64.00
2022-12-03T23:13:48.942Z,55.78
2022-12-03T23:16:19.401Z,66.90
2022-12-03T23:18:47.547Z,59.08
2022-12-03T23:21:20.728Z,57.97
2022-12-03T23:23:52.126Z,67.20
2022-12-03T23:26:19.982Z,60.78
2022-12-03T23:28:48.722Z,62.33
2022-12-03T23:31:20.086Z,50.63
2022-12-03T23:33:48.796Z,63.90
2022-12-03T23:36:18.660Z,70.65
2022-12-03T23:38:46.951Z,54.83
2022-12-03T23:41:16.710Z,61.70
2022-12-03T23:43:44.957Z,69.78
2022-12-03T23:46:15.190Z,60.10
2022-12-03T23:48:43.538Z,64.63
2022-12-03T23:51:13.523Z,67.80
2022-12-03T23:53:43.340Z,65.35
2022-12-03T23:56:13.671Z,68.15
2022-12-03T23:58:41.838Z,55.28
